sensor_id;sensor_type;location;lat;lon;timestamp;noise_LAeq;noise_LA_min;noise_LA_max;noise_LA01;noise_LA95
57092;Laerm;42968;52.094;4.328;2023-02-13T00:01:51;58.26;36.69;73.43;;
57092;Laerm;42968;52.094;4.328;2023-02-13T00:04:17;53.72;35.36;66.68;;
57092;Laerm;42968;52.094;4.328;2023-02-13T00:06:42;48.23;35.94;67.16;;
57092;Laerm;42968;52.094;4.328;2023-02-13T00:09:07;57.03;35.66;71.76;;
57092;Laerm;42968;52.094;4.328;2023-02-13T00:11:35;52.64;35.94;67.77;;
57092;Laerm;42968;52.094;4.328;2023-02-13T00:14:00;55.66;35.04;71.78;;
57092;Laerm;42968;52.094;4.328;2023-02-13T00:16:25;41.66;35.31;55.22;;
57092;Laerm;42968;52.094;4.328;2023-02-13T00:18:51;56.10;36.69;71.89;;
57092;Laerm;42968;52.094;4.328;2023-02-13T00:21:16;53.75;35.94;70.94;;
57092;Laerm;42968;52.094;4.328;2023-02-13T00:23:41;46.39;35.04;65.69;;
57092;Laerm;42968;52.094;4.328;2023-02-13T00:26:08;40.43;35.66;42.88;;
57092;Laerm;42968;52.094;4.328;2023-02-13T00:28:33;54.97;36.45;72.99;;
57092;Laerm;42968;52.094;4.328;2023-02-13T00:31:06;53.34;37.12;67.26;;
57092;Laerm;42968;52.094;4.328;2023-02-13T00:33:32;49.60;35.66;67.18;;
57092;Laerm;42968;52.094;4.328;2023-02-13T00:36:05;55.98;37.70;70.68;;
57092;Laerm;42968;52.094;4.328;2023-02-13T00:38:30;48.63;35.94;63.47;;
57092;Laerm;42968;52.094;4.328;2023-02-13T00:40:55;55.41;35.66;75.19;;
57092;Laerm;42968;52.094;4.328;2023-02-13T00:43:21;54.38;36.91;71.72;;
57092;Laerm;42968;52.094;4.328;2023-02-13T00:45:46;60.91;40.98;77.04;;
57092;Laerm;42968;52.094;4.328;2023-02-13T00:48:12;42.64;35.36;57.54;;
57092;Laerm;42968;52.094;4.328;2023-02-13T00:50:37;40.36;35.94;48.42;;
57092;Laerm;42968;52.094;4.328;2023-02-13T00:53:02;41.15;35.66;52.48;;
57092;Laerm;42968;52.094;4.328;2023-02-13T00:55:27;53.61;35.36;71.13;;
57092;Laerm;42968;52.094;4.328;2023-02-13T00:57:53;39.92;35.36;42.53;;
57092;Laerm;42968;52.094;4.328;2023-02-13T01:00:18;54.39;35.36;71.70;;
57092;Laerm;42968;52.094;4.328;2023-02-13T01:02:43;40.07;35.36;42.71;;
57092;Laerm;42968;52.094;4.328;2023-02-13T01:05:08;41.70;35.94;56.01;;
57092;Laerm;42968;52.094;4.328;2023-02-13T01:07:34;46.87;35.36;62.17;;
57092;Laerm;42968;52.094;4.328;2023-02-13T01:09:59;53.14;36.91;69.64;;
57092;Laerm;42968;52.094;4.328;2023-02-13T01:12:24;41.66;36.20;55.40;;
57092;Laerm;42968;52.094;4.328;2023-02-13T01:14:50;40.32;35.36;46.10;;
57092;Laerm;42968;52.094;4.328;2023-02-13T01:17:16;41.01;36.20;62.26;;
57092;Laerm;42968;52.094;4.328;2023-02-13T01:19:41;53.63;35.04;71.92;;
57092;Laerm;42968;52.094;4.328;2023-02-13T01:22:07;39.98;35.36;48.21;;
57092;Laerm;42968;52.094;4.328;2023-02-13T01:24:32;40.03;34.31;49.25;;
57092;Laerm;42968;52.094;4.328;2023-02-13T01:26:58;39.93;36.20;46.15;;
57092;Laerm;42968;52.094;4.328;2023-02-13T01:29:23;39.86;35.66;50.33;;
57092;Laerm;42968;52.094;4.328;2023-02-13T01:31:48;52.62;35.94;71.43;;
57092;Laerm;42968;52.094;4.328;2023-02-13T01:34:14;39.65;35.36;42.47;;
57092;Laerm;42968;52.094;4.328;2023-02-13T01:36:39;40.15;34.31;57.86;;
57092;Laerm;42968;52.094;4.328;2023-02-13T01:39:04;50.01;35.94;65.86;;
57092;Laerm;42968;52.094;4.328;2023-02-13T01:41:29;55.60;35.66;73.57;;
57092;Laerm;42968;52.094;4.328;2023-02-13T01:43:56;40.12;35.36;43.04;;
57092;Laerm;42968;52.094;4.328;2023-02-13T01:46:32;40.14;36.20;45.11;;
57092;Laerm;42968;52.094;4.328;2023-02-13T01:49:05;40.27;36.10;47.50;;
57092;Laerm;42968;52.094;4.328;2023-02-13T01:51:32;49.41;35.94;66.33;;
57092;Laerm;42968;52.094;4.328;2023-02-13T01:54:00;50.38;35.66;69.22;;
57092;Laerm;42968;52.094;4.328;2023-02-13T01:56:29;40.02;35.94;42.88;;
57092;Laerm;42968;52.094;4.328;2023-02-13T01:58:57;39.60;35.04;42.76;;
57092;Laerm;42968;52.094;4.328;2023-02-13T02:01:24;39.64;35.04;43.49;;
57092;Laerm;42968;52.094;4.328;2023-02-13T02:03:58;39.78;35.04;42.82;;
57092;Laerm;42968;52.094;4.328;2023-02-13T02:06:29;43.81;35.94;57.96;;
57092;Laerm;42968;52.094;4.328;2023-02-13T02:08:58;39.85;35.36;42.65;;
57092;Laerm;42968;52.094;4.328;2023-02-13T02:11:38;39.81;35.36;42.65;;
57092;Laerm;42968;52.094;4.328;2023-02-13T02:14:05;40.20;35.36;43.04;;
57092;Laerm;42968;52.094;4.328;2023-02-13T02:16:31;40.26;35.94;44.62;;
57092;Laerm;42968;52.094;4.328;2023-02-13T02:18:57;51.27;35.04;68.10;;
57092;Laerm;42968;52.094;4.328;2023-02-13T02:29:04;52.78;35.36;73.00;;
57092;Laerm;42968;52.094;4.328;2023-02-13T02:36:38;56.25;36.20;70.34;;
57092;Laerm;42968;52.094;4.328;2023-02-13T02:39:21;57.28;37.12;75.34;;
57092;Laerm;42968;52.094;4.328;2023-02-13T02:42:15;48.14;35.66;64.94;;
57092;Laerm;42968;52.094;4.328;2023-02-13T02:44:59;51.05;36.45;69.31;;
57092;Laerm;42968;52.094;4.328;2023-02-13T02:47:33;52.45;36.20;71.34;;
57092;Laerm;42968;52.094;4.328;2023-02-13T02:55:42;40.14;35.66;44.73;;
57092;Laerm;42968;52.094;4.328;2023-02-13T03:00:54;40.42;35.36;50.43;;
57092;Laerm;42968;52.094;4.328;2023-02-13T03:03:40;40.41;36.20;47.74;;
57092;Laerm;42968;52.094;4.328;2023-02-13T03:06:29;39.93;35.04;43.77;;
57092;Laerm;42968;52.094;4.328;2023-02-13T03:08:59;55.45;36.10;77.60;;
57092;Laerm;42968;52.094;4.328;2023-02-13T03:11:44;53.73;37.12;71.84;;
57092;Laerm;42968;52.094;4.328;2023-02-13T03:14:31;40.37;35.36;47.40;;
57092;Laerm;42968;52.094;4.328;2023-02-13T03:16:56;41.22;35.94;47.67;;
57092;Laerm;42968;52.094;4.328;2023-02-13T03:22:30;58.23;36.69;73.14;;
57092;Laerm;42968;52.094;4.328;2023-02-13T03:35:40;50.87;36.69;68.19;;
57092;Laerm;42968;52.094;4.328;2023-02-13T03:38:31;49.67;36.45;67.39;;
57092;Laerm;42968;52.094;4.328;2023-02-13T03:41:06;56.77;36.91;73.83;;
57092;Laerm;42968;52.094;4.328;2023-02-13T03:46:13;50.57;36.91;66.14;;
57092;Laerm;42968;52.094;4.328;2023-02-13T03:48:39;57.00;38.95;73.92;;
57092;Laerm;42968;52.094;4.328;2023-02-13T03:51:33;40.27;35.94;42.88;;
57092;Laerm;42968;52.094;4.328;2023-02-13T03:54:02;55.51;37.12;73.17;;
57092;Laerm;42968;52.094;4.328;2023-02-13T03:56:28;54.62;36.45;70.34;;
57092;Laerm;42968;52.094;4.328;2023-02-13T03:59:19;56.78;37.12;78.55;;
57092;Laerm;42968;52.094;4.328;2023-02-13T04:01:53;55.37;37.70;74.05;;
57092;Laerm;42968;52.094;4.328;2023-02-13T04:04:29;54.20;38.52;69.93;;
57092;Laerm;42968;52.094;4.328;2023-02-13T04:07:01;51.57;36.91;68.71;;
57092;Laerm;42968;52.094;4.328;2023-02-13T04:09:28;57.22;38.67;68.03;;
57092;Laerm;42968;52.094;4.328;2023-02-13T04:12:01;58.12;38.21;73.01;;
57092;Laerm;42968;52.094;4.328;2023-02-13T04:14:33;55.94;38.52;73.06;;
57092;Laerm;42968;52.094;4.328;2023-02-13T04:17:15;53.72;37.88;71.90;;
57092;Laerm;42968;52.094;4.328;2023-02-13T04:19:42;64.13;38.95;83.25;;
57092;Laerm;42968;52.094;4.328;2023-02-13T04:22:07;58.87;38.67;78.29;;
57092;Laerm;42968;52.094;4.328;2023-02-13T04:24:35;62.97;40.43;79.30;;
57092;Laerm;42968;52.094;4.328;2023-02-13T04:27:01;60.57;39.46;72.98;;
57092;Laerm;42968;52.094;4.328;2023-02-13T04:29:26;59.35;38.95;75.69;;
57092;Laerm;42968;52.094;4.328;2023-02-13T04:31:51;63.49;39.70;78.35;;
57092;Laerm;42968;52.094;4.328;2023-02-13T04:34:17;61.06;40.13;79.20;;
57092;Laerm;42968;52.094;4.328;2023-02-13T04:36:42;59.33;40.43;73.89;;
57092;Laerm;42968;52.094;4.328;2023-02-13T04:39:08;61.27;41.22;77.78;;
57092;Laerm;42968;52.094;4.328;2023-02-13T04:41:33;63.42;42.41;76.86;;
57092;Laerm;42968;52.094;4.328;2023-02-13T04:43:58;66.12;44.15;81.92;;
57092;Laerm;42968;52.094;4.328;2023-02-13T04:46:23;61.28;41.96;75.90;;
57092;Laerm;42968;52.094;4.328;2023-02-13T04:48:49;64.19;40.71;78.48;;
57092;Laerm;42968;52.094;4.328;2023-02-13T04:51:14;64.27;39.34;78.33;;
57092;Laerm;42968;52.094;4.328;2023-02-13T04:53:39;63.43;40.80;76.25;;
57092;Laerm;42968;52.094;4.328;2023-02-13T04:56:04;64.83;42.47;79.55;;
57092;Laerm;42968;52.094;4.328;2023-02-13T04:58:30;62.35;40.89;74.93;;
57092;Laerm;42968;52.094;4.328;2023-02-13T05:00:55;61.24;39.92;77.73;;
57092;Laerm;42968;52.094;4.328;2023-02-13T05:03:20;62.90;41.89;75.02;;
57092;Laerm;42968;52.094;4.328;2023-02-13T05:05:46;64.01;40.13;77.49;;
57092;Laerm;42968;52.094;4.328;2023-02-13T05:08:12;63.28;42.16;74.45;;
57092;Laerm;42968;52.094;4.328;2023-02-13T05:10:37;63.78;44.58;75.64;;
57092;Laerm;42968;52.094;4.328;2023-02-13T05:13:02;65.69;42.76;74.99;;
57092;Laerm;42968;52.094;4.328;2023-02-13T05:15:28;66.83;44.69;78.92;;
57092;Laerm;42968;52.094;4.328;2023-02-13T05:17:53;67.02;42.59;78.20;;
57092;Laerm;42968;52.094;4.328;2023-02-13T05:20:18;67.86;45.04;81.86;;
57092;Laerm;42968;52.094;4.328;2023-02-13T05:22:44;62.36;44.51;74.26;;
57092;Laerm;42968;52.094;4.328;2023-02-13T05:25:28;67.09;43.68;80.37;;
57092;Laerm;42968;52.094;4.328;2023-02-13T05:27:53;63.80;42.82;75.62;;
57092;Laerm;42968;52.094;4.328;2023-02-13T05:30:19;65.16;42.53;77.17;;
57092;Laerm;42968;52.094;4.328;2023-02-13T05:32:44;65.70;42.85;76.53;;
57092;Laerm;42968;52.094;4.328;2023-02-13T05:35:09;67.64;42.59;77.34;;
57092;Laerm;42968;52.094;4.328;2023-02-13T05:37:35;67.01;44.54;75.67;;
57092;Laerm;42968;52.094;4.328;2023-02-13T05:40:00;67.95;43.29;79.11;;
57092;Laerm;42968;52.094;4.328;2023-02-13T05:42:25;66.07;45.69;76.61;;
57092;Laerm;42968;52.094;4.328;2023-02-13T05:44:53;69.28;49.47;79.72;;
57092;Laerm;42968;52.094;4.328;2023-02-13T05:47:18;65.56;43.68;77.01;;
57092;Laerm;42968;52.094;4.328;2023-02-13T05:49:44;67.69;43.94;81.88;;
57092;Laerm;42968;52.094;4.328;2023-02-13T05:52:09;69.43;44.80;81.35;;
57092;Laerm;42968;52.094;4.328;2023-02-13T05:54:34;67.14;44.58;79.01;;
57092;Laerm;42968;52.094;4.328;2023-02-13T05:57:00;67.34;44.87;75.67;;
57092;Laerm;42968;52.094;4.328;2023-02-13T05:59:25;68.25;44.58;77.60;;
57092;Laerm;42968;52.094;4.328;2023-02-13T06:01:54;67.27;44.76;77.56;;
57092;Laerm;42968;52.094;4.328;2023-02-13T06:04:19;68.74;45.30;80.12;;
57092;Laerm;42968;52.094;4.328;2023-02-13T06:06:44;68.40;44.87;81.48;;
57092;Laerm;42968;52.094;4.328;2023-02-13T06:09:10;70.35;55.45;87.68;;
57092;Laerm;42968;52.094;4.328;2023-02-13T06:11:35;68.66;46.07;82.52;;
57092;Laerm;42968;52.094;4.328;2023-02-13T06:14:00;68.82;46.48;81.79;;
57092;Laerm;42968;52.094;4.328;2023-02-13T06:16:26;67.64;45.51;78.25;;
57092;Laerm;42968;52.094;4.328;2023-02-13T06:18:51;68.79;46.64;80.34;;
57092;Laerm;42968;52.094;4.328;2023-02-13T06:21:16;66.53;47.46;75.60;;
57092;Laerm;42968;52.094;4.328;2023-02-13T06:23:42;68.18;45.23;79.85;;
57092;Laerm;42968;52.094;4.328;2023-02-13T06:26:07;68.04;45.75;78.81;;
57092;Laerm;42968;52.094;4.328;2023-02-13T06:28:33;67.79;45.69;77.98;;
57092;Laerm;42968;52.094;4.328;2023-02-13T06:30:59;68.82;51.81;78.24;;
57092;Laerm;42968;52.094;4.328;2023-02-13T06:33:24;68.60;48.29;81.54;;
57092;Laerm;42968;52.094;4.328;2023-02-13T06:35:50;68.59;49.55;78.80;;
57092;Laerm;42968;52.094;4.328;2023-02-13T06:38:15;69.35;47.68;82.00;;
57092;Laerm;42968;52.094;4.328;2023-02-13T06:40:43;68.49;46.97;77.61;;
57092;Laerm;42968;52.094;4.328;2023-02-13T06:43:08;67.32;52.74;77.52;;
57092;Laerm;42968;52.094;4.328;2023-02-13T06:45:34;68.09;48.37;78.51;;
57092;Laerm;42968;52.094;4.328;2023-02-13T06:47:59;69.50;51.71;76.78;;
57092;Laerm;42968;52.094;4.328;2023-02-13T06:50:24;67.69;50.45;81.32;;
57092;Laerm;42968;52.094;4.328;2023-02-13T06:52:50;68.42;51.06;77.47;;
57092;Laerm;42968;52.094;4.328;2023-02-13T06:55:16;71.18;49.19;81.22;;
57092;Laerm;42968;52.094;4.328;2023-02-13T06:57:42;69.52;47.12;81.19;;
57092;Laerm;42968;52.094;4.328;2023-02-13T07:00:08;68.54;45.99;76.08;;
57092;Laerm;42968;52.094;4.328;2023-02-13T07:02:37;70.67;52.56;79.65;;
57092;Laerm;42968;52.094;4.328;2023-02-13T07:05:03;71.32;49.50;81.88;;
57092;Laerm;42968;52.094;4.328;2023-02-13T07:07:31;70.21;48.39;79.28;;
57092;Laerm;42968;52.094;4.328;2023-02-13T07:09:56;69.16;52.35;77.31;;
57092;Laerm;42968;52.094;4.328;2023-02-13T07:12:22;70.62;50.80;82.23;;
57092;Laerm;42968;52.094;4.328;2023-02-13T07:14:47;70.31;53.08;83.36;;
57092;Laerm;42968;52.094;4.328;2023-02-13T07:17:12;68.14;51.64;77.06;;
57092;Laerm;42968;52.094;4.328;2023-02-13T07:19:38;70.26;60.23;85.57;;
57092;Laerm;42968;52.094;4.328;2023-02-13T07:22:03;67.88;51.73;75.70;;
57092;Laerm;42968;52.094;4.328;2023-02-13T07:24:29;69.85;56.39;78.15;;
57092;Laerm;42968;52.094;4.328;2023-02-13T07:26:54;70.08;57.97;82.18;;
57092;Laerm;42968;52.094;4.328;2023-02-13T07:29:19;71.63;48.02;82.57;;
57092;Laerm;42968;52.094;4.328;2023-02-13T07:31:44;70.37;51.38;77.53;;
57092;Laerm;42968;52.094;4.328;2023-02-13T07:34:10;71.89;51.23;79.14;;
57092;Laerm;42968;52.094;4.328;2023-02-13T07:36:35;70.31;49.74;78.57;;
57092;Laerm;42968;52.094;4.328;2023-02-13T07:39:00;70.78;52.36;86.20;;
57092;Laerm;42968;52.094;4.328;2023-02-13T07:41:26;71.31;52.44;82.82;;
57092;Laerm;42968;52.094;4.328;2023-02-13T07:43:51;70.05;54.07;78.73;;
57092;Laerm;42968;52.094;4.328;2023-02-13T07:46:17;71.07;55.04;82.03;;
57092;Laerm;42968;52.094;4.328;2023-02-13T07:48:42;69.94;56.92;79.54;;
57092;Laerm;42968;52.094;4.328;2023-02-13T07:51:07;69.81;58.06;78.89;;
57092;Laerm;42968;52.094;4.328;2023-02-13T07:53:33;70.42;58.51;82.95;;
57092;Laerm;42968;52.094;4.328;2023-02-13T07:55:58;70.39;54.94;78.91;;
57092;Laerm;42968;52.094;4.328;2023-02-13T07:58:24;68.55;52.28;76.11;;
57092;Laerm;42968;52.094;4.328;2023-02-13T08:00:49;70.17;50.14;77.54;;
57092;Laerm;42968;52.094;4.328;2023-02-13T08:03:15;70.27;45.89;82.22;;
57092;Laerm;42968;52.094;4.328;2023-02-13T08:05:41;70.51;49.89;77.54;;
57092;Laerm;42968;52.094;4.328;2023-02-13T08:08:06;70.48;50.88;80.88;;
57092;Laerm;42968;52.094;4.328;2023-02-13T08:10:32;68.69;54.27;77.07;;
57092;Laerm;42968;52.094;4.328;2023-02-13T08:13:16;70.69;49.71;82.61;;
57092;Laerm;42968;52.094;4.328;2023-02-13T08:15:41;70.24;51.66;81.17;;
57092;Laerm;42968;52.094;4.328;2023-02-13T08:18:08;69.16;55.09;81.85;;
57092;Laerm;42968;52.094;4.328;2023-02-13T08:20:34;69.12;51.32;77.48;;
57092;Laerm;42968;52.094;4.328;2023-02-13T08:23:06;68.74;49.58;78.42;;
57092;Laerm;42968;52.094;4.328;2023-02-13T08:25:32;68.39;51.43;76.40;;
57092;Laerm;42968;52.094;4.328;2023-02-13T08:27:58;69.06;47.34;78.94;;
57092;Laerm;42968;52.094;4.328;2023-02-13T08:30:23;69.79;50.43;80.26;;
57092;Laerm;42968;52.094;4.328;2023-02-13T08:32:48;68.07;54.64;79.34;;
57092;Laerm;42968;52.094;4.328;2023-02-13T08:35:14;68.62;52.17;78.97;;
57092;Laerm;42968;52.094;4.328;2023-02-13T08:37:39;68.79;47.22;82.86;;
57092;Laerm;42968;52.094;4.328;2023-02-13T08:40:05;69.81;51.85;82.88;;
57092;Laerm;42968;52.094;4.328;2023-02-13T08:42:30;67.89;50.32;77.98;;
57092;Laerm;42968;52.094;4.328;2023-02-13T08:44:55;69.37;48.52;82.03;;
57092;Laerm;42968;52.094;4.328;2023-02-13T08:47:24;68.12;50.28;78.14;;
57092;Laerm;42968;52.094;4.328;2023-02-13T08:49:49;67.94;45.51;77.38;;
57092;Laerm;42968;52.094;4.328;2023-02-13T08:52:14;69.81;47.26;77.52;;
57092;Laerm;42968;52.094;4.328;2023-02-13T08:54:39;68.43;45.89;76.71;;
57092;Laerm;42968;52.094;4.328;2023-02-13T08:57:05;68.52;46.73;86.97;;
57092;Laerm;42968;52.094;4.328;2023-02-13T08:59:30;69.79;47.44;79.30;;
57092;Laerm;42968;52.094;4.328;2023-02-13T09:01:56;67.82;49.40;80.38;;
57092;Laerm;42968;52.094;4.328;2023-02-13T09:04:22;69.01;55.86;81.52;;
57092;Laerm;42968;52.094;4.328;2023-02-13T09:06:47;67.66;45.54;79.45;;
57092;Laerm;42968;52.094;4.328;2023-02-13T09:09:12;67.00;48.25;76.16;;
57092;Laerm;42968;52.094;4.328;2023-02-13T09:11:37;68.50;49.52;78.45;;
57092;Laerm;42968;52.094;4.328;2023-02-13T09:14:03;69.19;45.66;78.40;;
57092;Laerm;42968;52.094;4.328;2023-02-13T09:16:28;69.88;44.79;81.28;;
57092;Laerm;42968;52.094;4.328;2023-02-13T09:18:54;69.29;50.21;81.84;;
57092;Laerm;42968;52.094;4.328;2023-02-13T09:21:20;68.72;50.15;79.38;;
57092;Laerm;42968;52.094;4.328;2023-02-13T09:23:46;68.67;50.68;77.89;;
57092;Laerm;42968;52.094;4.328;2023-02-13T09:26:12;68.15;49.30;78.65;;
57092;Laerm;42968;52.094;4.328;2023-02-13T09:28:38;67.28;49.59;76.11;;
57092;Laerm;42968;52.094;4.328;2023-02-13T09:31:04;67.51;43.19;78.03;;
57092;Laerm;42968;52.094;4.328;2023-02-13T09:33:29;68.11;53.33;78.04;;
57092;Laerm;42968;52.094;4.328;2023-02-13T09:35:55;65.97;46.45;75.05;;
57092;Laerm;42968;52.094;4.328;2023-02-13T09:38:20;68.73;47.32;82.49;;
57092;Laerm;42968;52.094;4.328;2023-02-13T09:40:50;68.71;48.64;78.73;;
57092;Laerm;42968;52.094;4.328;2023-02-13T09:45:48;68.94;45.66;83.27;;
57092;Laerm;42968;52.094;4.328;2023-02-13T09:48:21;68.56;50.44;80.80;;
57092;Laerm;42968;52.094;4.328;2023-02-13T09:50:52;69.49;56.10;79.66;;
57092;Laerm;42968;52.094;4.328;2023-02-13T09:53:21;68.42;47.79;77.80;;
57092;Laerm;42968;52.094;4.328;2023-02-13T09:55:59;67.45;47.14;78.14;;
57092;Laerm;42968;52.094;4.328;2023-02-13T09:58:39;72.95;47.32;88.80;;
57092;Laerm;42968;52.094;4.328;2023-02-13T10:01:12;68.53;50.99;78.46;;
57092;Laerm;42968;52.094;4.328;2023-02-13T10:06:29;68.28;47.50;78.71;;
57092;Laerm;42968;52.094;4.328;2023-02-13T10:14:15;68.51;45.04;83.54;;
57092;Laerm;42968;52.094;4.328;2023-02-13T10:17:00;69.75;47.42;80.53;;
57092;Laerm;42968;52.094;4.328;2023-02-13T10:22:00;69.21;44.54;78.68;;
57092;Laerm;42968;52.094;4.328;2023-02-13T10:26:56;69.50;46.35;77.27;;
57092;Laerm;42968;52.094;4.328;2023-02-13T10:29:30;67.26;47.61;76.28;;
57092;Laerm;42968;52.094;4.328;2023-02-13T10:32:20;68.23;51.34;80.36;;
57092;Laerm;42968;52.094;4.328;2023-02-13T10:34:46;68.19;45.69;82.50;;
57092;Laerm;42968;52.094;4.328;2023-02-13T10:37:14;69.46;53.44;78.75;;
57092;Laerm;42968;52.094;4.328;2023-02-13T10:39:42;66.02;49.56;76.47;;
57092;Laerm;42968;52.094;4.328;2023-02-13T10:55:30;68.52;48.91;81.57;;
57092;Laerm;42968;52.094;4.328;2023-02-13T11:00:37;67.54;48.85;75.52;;
57092;Laerm;42968;52.094;4.328;2023-02-13T11:03:04;69.23;47.30;77.40;;
57092;Laerm;42968;52.094;4.328;2023-02-13T11:05:36;69.92;49.51;92.84;;
57092;Laerm;42968;52.094;4.328;2023-02-13T11:08:02;67.06;45.91;78.83;;
57092;Laerm;42968;52.094;4.328;2023-02-13T11:10:27;68.23;49.77;77.42;;
57092;Laerm;42968;52.094;4.328;2023-02-13T11:12:52;69.08;48.32;76.69;;
57092;Laerm;42968;52.094;4.328;2023-02-13T11:15:19;68.39;48.66;79.21;;
57092;Laerm;42968;52.094;4.328;2023-02-13T11:17:45;69.00;51.75;82.63;;
57092;Laerm;42968;52.094;4.328;2023-02-13T11:20:33;69.48;51.76;78.86;;
57092;Laerm;42968;52.094;4.328;2023-02-13T11:26:03;68.04;48.23;77.80;;
57092;Laerm;42968;52.094;4.328;2023-02-13T11:28:33;67.87;52.47;80.39;;
57092;Laerm;42968;52.094;4.328;2023-02-13T11:31:10;67.08;45.72;78.05;;
57092;Laerm;42968;52.094;4.328;2023-02-13T11:33:35;70.27;47.83;81.68;;
57092;Laerm;42968;52.094;4.328;2023-02-13T11:36:08;67.17;49.18;77.97;;
57092;Laerm;42968;52.094;4.328;2023-02-13T11:38:35;69.43;47.95;78.89;;
57092;Laerm;42968;52.094;4.328;2023-02-13T11:41:35;68.23;47.08;76.97;;
57092;Laerm;42968;52.094;4.328;2023-02-13T11:43:55;66.78;44.38;77.06;;
57092;Laerm;42968;52.094;4.328;2023-02-13T11:46:25;70.54;46.69;78.68;;
57092;Laerm;42968;52.094;4.328;2023-02-13T11:49:34;68.01;45.80;79.57;;
57092;Laerm;42968;52.094;4.328;2023-02-13T11:56:53;68.76;47.37;77.08;;
57092;Laerm;42968;52.094;4.328;2023-02-13T11:59:23;68.77;53.99;78.24;;
57092;Laerm;42968;52.094;4.328;2023-02-13T12:04:27;67.86;52.74;75.95;;
57092;Laerm;42968;52.094;4.328;2023-02-13T12:09:27;67.69;43.99;83.01;;
57092;Laerm;42968;52.094;4.328;2023-02-13T12:11:53;67.76;45.89;75.51;;
57092;Laerm;42968;52.094;4.328;2023-02-13T12:14:30;69.22;49.93;78.82;;
57092;Laerm;42968;52.094;4.328;2023-02-13T12:17:04;67.84;47.88;77.24;;
57092;Laerm;42968;52.094;4.328;2023-02-13T12:19:40;68.90;51.48;85.07;;
57092;Laerm;42968;52.094;4.328;2023-02-13T12:32:56;68.54;51.11;82.29;;
57092;Laerm;42968;52.094;4.328;2023-02-13T12:56:05;68.60;52.25;77.35;;
57092;Laerm;42968;52.094;4.328;2023-02-13T13:01:23;68.11;48.46;76.31;;
57092;Laerm;42968;52.094;4.328;2023-02-13T13:06:44;68.32;45.63;77.21;;
57092;Laerm;42968;52.094;4.328;2023-02-13T13:12:06;67.06;46.82;80.58;;
57092;Laerm;42968;52.094;4.328;2023-02-13T13:27:30;68.22;49.75;79.33;;
57092;Laerm;42968;52.094;4.328;2023-02-13T13:30:01;69.95;49.43;82.47;;
57092;Laerm;42968;52.094;4.328;2023-02-13T13:32:27;68.78;45.51;78.61;;
57092;Laerm;42968;52.094;4.328;2023-02-13T13:34:54;69.82;53.84;87.17;;
57092;Laerm;42968;52.094;4.328;2023-02-13T13:37:34;67.90;48.90;77.22;;
57092;Laerm;42968;52.094;4.328;2023-02-13T13:42:50;69.88;50.77;80.90;;
57092;Laerm;42968;52.094;4.328;2023-02-13T13:45:24;68.41;49.65;78.78;;
57092;Laerm;42968;52.094;4.328;2023-02-13T13:50:22;70.49;45.83;85.21;;
57092;Laerm;42968;52.094;4.328;2023-02-13T13:53:05;69.18;50.72;77.52;;
57092;Laerm;42968;52.094;4.328;2023-02-13T13:58:25;68.56;52.88;79.22;;
57092;Laerm;42968;52.094;4.328;2023-02-13T14:03:43;68.15;47.88;77.67;;
57092;Laerm;42968;52.094;4.328;2023-02-13T14:06:09;67.90;43.29;80.01;;
57092;Laerm;42968;52.094;4.328;2023-02-13T14:11:03;67.81;47.63;75.22;;
57092;Laerm;42968;52.094;4.328;2023-02-13T14:13:33;70.80;48.46;81.61;;
57092;Laerm;42968;52.094;4.328;2023-02-13T14:15:58;70.00;55.99;86.49;;
57092;Laerm;42968;52.094;4.328;2023-02-13T14:18:24;69.01;46.91;77.75;;
57092;Laerm;42968;52.094;4.328;2023-02-13T14:20:51;68.96;49.84;77.43;;
57092;Laerm;42968;52.094;4.328;2023-02-13T14:25:46;68.46;45.07;79.10;;
57092;Laerm;42968;52.094;4.328;2023-02-13T14:28:20;69.22;53.32;80.97;;
57092;Laerm;42968;52.094;4.328;2023-02-13T14:30:46;68.70;48.02;80.48;;
57092;Laerm;42968;52.094;4.328;2023-02-13T14:33:21;70.46;53.22;77.99;;
57092;Laerm;42968;52.094;4.328;2023-02-13T14:35:54;68.79;51.79;80.78;;
57092;Laerm;42968;52.094;4.328;2023-02-13T14:38:23;69.64;56.68;81.08;;
57092;Laerm;42968;52.094;4.328;2023-02-13T14:40:49;69.44;55.36;77.48;;
57092;Laerm;42968;52.094;4.328;2023-02-13T14:43:20;69.68;57.53;82.36;;
57092;Laerm;42968;52.094;4.328;2023-02-13T14:45:46;68.69;52.44;79.66;;
57092;Laerm;42968;52.094;4.328;2023-02-13T14:48:16;69.32;56.59;77.72;;
57092;Laerm;42968;52.094;4.328;2023-02-13T14:53:08;68.72;50.02;79.93;;
57092;Laerm;42968;52.094;4.328;2023-02-13T14:55:40;69.30;55.56;81.03;;
57092;Laerm;42968;52.094;4.328;2023-02-13T14:58:08;71.36;49.25;85.68;;
57092;Laerm;42968;52.094;4.328;2023-02-13T15:05:41;68.31;48.15;77.05;;
57092;Laerm;42968;52.094;4.328;2023-02-13T15:08:14;69.18;52.64;75.99;;
57092;Laerm;42968;52.094;4.328;2023-02-13T15:10:43;69.46;50.27;78.64;;
57092;Laerm;42968;52.094;4.328;2023-02-13T15:13:52;69.78;50.54;77.75;;
57092;Laerm;42968;52.094;4.328;2023-02-13T15:18:26;69.18;50.15;78.32;;
57092;Laerm;42968;52.094;4.328;2023-02-13T15:20:56;68.88;47.20;77.93;;
57092;Laerm;42968;52.094;4.328;2023-02-13T15:23:24;68.92;49.95;76.61;;
57092;Laerm;42968;52.094;4.328;2023-02-13T15:25:55;69.25;57.87;76.84;;
57092;Laerm;42968;52.094;4.328;2023-02-13T15:28:20;70.43;54.10;79.39;;
57092;Laerm;42968;52.094;4.328;2023-02-13T15:30:58;70.37;46.13;85.91;;
57092;Laerm;42968;52.094;4.328;2023-02-13T15:33:25;68.39;56.68;81.41;;
57092;Laerm;42968;52.094;4.328;2023-02-13T15:35:58;72.94;48.61;90.25;;
57092;Laerm;42968;52.094;4.328;2023-02-13T15:40:49;70.07;56.79;81.14;;
57092;Laerm;42968;52.094;4.328;2023-02-13T15:43:30;68.44;53.23;77.37;;
57092;Laerm;42968;52.094;4.328;2023-02-13T15:45:58;70.33;52.48;84.98;;
57092;Laerm;42968;52.094;4.328;2023-02-13T15:48:24;69.79;53.19;80.09;;
57092;Laerm;42968;52.094;4.328;2023-02-13T15:50:49;67.64;45.77;77.37;;
57092;Laerm;42968;52.094;4.328;2023-02-13T15:53:15;69.39;52.08;77.78;;
57092;Laerm;42968;52.094;4.328;2023-02-13T15:55:44;71.46;49.53;85.04;;
57092;Laerm;42968;52.094;4.328;2023-02-13T15:58:19;69.02;58.27;77.15;;
57092;Laerm;42968;52.094;4.328;2023-02-13T16:00:45;69.02;55.07;80.62;;
57092;Laerm;42968;52.094;4.328;2023-02-13T16:03:12;68.57;50.72;77.52;;
57092;Laerm;42968;52.094;4.328;2023-02-13T16:05:39;69.41;51.85;77.41;;
57092;Laerm;42968;52.094;4.328;2023-02-13T16:10:48;69.02;52.22;79.64;;
57092;Laerm;42968;52.094;4.328;2023-02-13T16:13:15;70.01;52.54;81.30;;
57092;Laerm;42968;52.094;4.328;2023-02-13T16:15:42;69.47;50.65;76.36;;
57092;Laerm;42968;52.094;4.328;2023-02-13T16:18:17;69.04;46.78;76.06;;
57092;Laerm;42968;52.094;4.328;2023-02-13T16:20:44;68.18;51.52;76.22;;
57092;Laerm;42968;52.094;4.328;2023-02-13T16:23:14;69.27;50.41;76.51;;
57092;Laerm;42968;52.094;4.328;2023-02-13T16:25:40;72.47;60.84;95.45;;
57092;Laerm;42968;52.094;4.328;2023-02-13T16:30:35;68.59;45.66;78.94;;
57092;Laerm;42968;52.094;4.328;2023-02-13T16:33:08;69.48;50.68;77.99;;
57092;Laerm;42968;52.094;4.328;2023-02-13T16:35:34;71.18;53.50;80.06;;
57092;Laerm;42968;52.094;4.328;2023-02-13T16:38:02;69.06;57.78;78.18;;
57092;Laerm;42968;52.094;4.328;2023-02-13T16:45:43;69.09;52.98;87.95;;